createdAt,value
2018-11-28T00:01:32.227Z,"    0"
2018-11-28T00:06:28.484Z,"    0"
2018-11-28T00:11:23.778Z,"    0"
2018-11-28T00:16:21.097Z,"    0"
2018-11-28T00:21:16.456Z,"    0"
2018-11-28T00:26:11.990Z,"    0"
2018-11-28T00:31:07.321Z,"    0"
2018-11-28T00:36:02.938Z,"    0"
2018-11-28T00:40:58.484Z,"    0"
2018-11-28T00:45:53.705Z,"    0"
2018-11-28T00:50:50.119Z,"    0"
2018-11-28T00:55:48.495Z,"    0"
2018-11-28T01:00:44.436Z,"    0"
2018-11-28T01:05:39.660Z,"    0"
2018-11-28T01:10:35.033Z,"    0"
2018-11-28T01:15:32.354Z,"    0"
2018-11-28T01:20:27.972Z,"    0"
2018-11-28T01:25:23.332Z,"    0"
2018-11-28T01:30:18.676Z,"    0"
2018-11-28T01:35:14.071Z,"    0"
2018-11-28T01:40:11.180Z,"    0"
2018-11-28T01:45:07.445Z,"    0"
2018-11-28T01:50:02.819Z,"    0"
2018-11-28T01:54:58.422Z,"    0"
2018-11-28T01:59:53.949Z,"    0"
2018-11-28T02:04:49.576Z,"    0"
2018-11-28T02:09:46.247Z,"    0"
2018-11-28T02:14:42.386Z,"    0"
2018-11-28T02:19:37.682Z,"    0"
2018-11-28T02:24:33.410Z,"    0"
2018-11-28T02:29:28.896Z,"    0"
2018-11-28T02:34:24.557Z,"    0"
2018-11-28T02:39:21.072Z,"    0"
2018-11-28T02:44:17.122Z,"    0"
2018-11-28T02:49:13.239Z,"    0"
2018-11-28T02:54:08.836Z,"    0"
2018-11-28T02:59:04.403Z,"    0"
2018-11-28T03:04:00.004Z,"    0"
2018-11-28T03:08:55.524Z,"    0"
2018-11-28T03:13:50.958Z,"    0"
2018-11-28T03:18:46.597Z,"    0"
2018-11-28T03:23:42.169Z,"    0"
2018-11-28T03:28:38.464Z,"    0"
2018-11-28T03:33:34.143Z,"    0"
2018-11-28T03:38:30.728Z,"    0"
2018-11-28T03:43:26.306Z,"    0"
2018-11-28T03:48:21.881Z,"    0"
2018-11-28T03:53:18.565Z,"    0"
2018-11-28T03:58:13.896Z,"    0"
2018-11-28T04:03:09.490Z,"    0"
2018-11-28T04:08:05.211Z,"    0"
2018-11-28T04:13:01.060Z,"    0"
2018-11-28T04:17:56.453Z,"    0"
2018-11-28T04:22:52.120Z,"    0"
2018-11-28T04:27:47.572Z,"    0"
2018-11-28T04:32:43.026Z,"    0"
2018-11-28T04:37:38.601Z,"    0"
2018-11-28T04:42:35.232Z,"    0"
2018-11-28T04:47:30.398Z,"    0"
2018-11-28T04:52:25.974Z,"    0"
2018-11-28T04:57:21.555Z,"    0"
2018-11-28T05:02:17.499Z,"    0"
2018-11-28T05:07:13.131Z,"    0"
2018-11-28T05:12:09.041Z,"    0"
2018-11-28T05:17:05.566Z,"    0"
2018-11-28T05:22:00.875Z,"    0"
2018-11-28T05:26:56.397Z,"    0"
2018-11-28T05:31:51.791Z,"    0"
2018-11-28T05:36:47.539Z,"    0"
2018-11-28T05:41:43.208Z,"    0"
2018-11-28T05:46:38.624Z,"    0"
2018-11-28T05:51:34.373Z,"    0"
2018-11-28T05:56:30.658Z,"    0"
2018-11-28T06:01:26.422Z,"    0"
2018-11-28T06:06:22.289Z,"    0"
2018-11-28T06:11:18.001Z,"    0"
2018-11-28T06:16:13.291Z,"    0"
2018-11-28T06:21:08.787Z,"    0"
2018-11-28T06:26:04.541Z,"    0"
2018-11-28T06:31:00.050Z,"    0"
2018-11-28T06:35:55.633Z,"    0"
2018-11-28T06:40:52.303Z,"    0"
2018-11-28T06:45:49.710Z,"    0"
2018-11-28T06:50:44.862Z,"    0"
2018-11-28T06:55:41.188Z,"    0"
2018-11-28T07:00:37.194Z,"    0"
2018-11-28T07:05:32.868Z,"    5"
2018-11-28T07:10:29.263Z,"    5"
2018-11-28T07:15:25.614Z,"    5"
2018-11-28T07:20:21.565Z,"    5"
2018-11-28T07:25:18.187Z,"   10"
2018-11-28T07:30:13.373Z,"   10"
2018-11-28T07:35:09.009Z,"   15"
2018-11-28T07:40:04.542Z,"   20"
2018-11-28T07:45:00.143Z,"   20"
2018-11-28T07:49:55.778Z,"   25"
2018-11-28T07:54:51.349Z,"   25"
2018-11-28T07:59:47.728Z,"   30"
2018-11-28T08:04:44.585Z,"   30"
2018-11-28T08:09:40.985Z,"   35"
2018-11-28T08:14:36.351Z,"   40"
2018-11-28T08:19:31.970Z,"   40"
2018-11-28T08:24:28.709Z,"   50"
2018-11-28T08:29:25.104Z,"   50"
2018-11-28T08:34:20.449Z,"   50"
2018-11-28T08:39:15.996Z,"   50"
2018-11-28T08:44:12.344Z,"   55"
2018-11-28T08:49:07.977Z,"   60"
2018-11-28T08:54:03.700Z,"   60"
2018-11-28T08:59:00.342Z,"   60"
2018-11-28T09:03:55.416Z,"   75"
2018-11-28T09:08:51.101Z,"   75"
2018-11-28T09:13:46.704Z,"   85"
2018-11-28T09:18:42.735Z,"   90"
2018-11-28T09:23:39.435Z,"  105"
2018-11-28T09:28:35.804Z,"  105"
2018-11-28T09:33:31.786Z,"  105"
2018-11-28T09:38:28.667Z,"  105"
2018-11-28T09:43:25.027Z,"  115"
2018-11-28T09:48:20.542Z,"  110"
2018-11-28T09:53:16.196Z,"  115"
2018-11-28T09:58:12.210Z,"  115"
2018-11-28T10:03:07.909Z,"  120"
2018-11-28T10:08:03.728Z,"  120"
2018-11-28T10:13:00.746Z,"  125"
2018-11-28T10:17:56.970Z,"  135"
2018-11-28T10:22:52.558Z,"  135"
2018-11-28T10:27:48.350Z,"  140"
2018-11-28T10:32:44.110Z,"  145"
2018-11-28T10:37:40.241Z,"  145"
2018-11-28T10:42:36.952Z,"  120"
2018-11-28T10:47:33.458Z,"  120"
2018-11-28T10:52:29.031Z,"  125"
2018-11-28T10:57:25.677Z,"  130"
2018-11-28T11:02:20.893Z,"  125"
2018-11-28T11:07:17.481Z,"  130"
2018-11-28T11:12:13.957Z,"  135"
2018-11-28T11:17:09.388Z,"  130"
2018-11-28T11:22:05.242Z,"  135"
2018-11-28T11:27:00.936Z,"  145"
2018-11-28T11:31:57.392Z,"  150"
2018-11-28T11:36:53.916Z,"  145"
2018-11-28T11:41:50.624Z,"  150"
2018-11-28T11:46:47.081Z,"  145"
2018-11-28T11:51:42.630Z,"  150"
2018-11-28T11:56:38.201Z,"  150"
2018-11-28T12:01:34.067Z,"  140"
2018-11-28T12:06:29.895Z,"  130"
2018-11-28T12:11:27.158Z,"  125"
2018-11-28T12:16:22.737Z,"  120"
2018-11-28T12:21:19.156Z,"  120"
2018-11-28T12:26:14.800Z,"  115"
2018-11-28T12:31:11.439Z,"  115"
2018-11-28T12:36:06.683Z,"  105"
2018-11-28T12:41:03.454Z,"   95"
2018-11-28T12:45:59.023Z,"   85"
2018-11-28T12:50:54.596Z,"   80"
2018-11-28T12:55:50.357Z,"   75"
2018-11-28T13:00:47.059Z,"   70"
2018-11-28T13:05:43.474Z,"   70"
2018-11-28T13:10:39.030Z,"   80"
2018-11-28T13:15:34.602Z,"   85"
2018-11-28T13:20:30.354Z,"   75"
2018-11-28T13:25:27.033Z,"   70"
2018-11-28T13:30:23.315Z,"   75"
2018-11-28T13:35:18.669Z,"   80"
2018-11-28T13:40:14.400Z,"   95"
2018-11-28T13:45:11.097Z,"  100"
2018-11-28T13:50:08.049Z,"   90"
2018-11-28T13:55:37.446Z,"   85"
2018-11-28T14:00:03.193Z,"   70"
2018-11-28T14:05:03.851Z,"   60"
2018-11-28T14:09:58.884Z,"   60"
2018-11-28T14:14:54.482Z,"   50"
2018-11-28T14:19:49.940Z,"   40"
2018-11-28T14:24:45.926Z,"   35"
2018-11-28T14:29:41.563Z,"   30"
2018-11-28T14:34:38.396Z,"   25"
2018-11-28T14:39:34.721Z,"   20"
2018-11-28T14:44:30.062Z,"   15"
2018-11-28T14:49:26.284Z,"   10"
2018-11-28T14:54:23.116Z,"   10"
2018-11-28T14:59:18.946Z,"   10"
2018-11-28T15:04:14.405Z,"    5"
2018-11-28T15:09:09.507Z,"    5"
2018-11-28T15:14:05.372Z,"    5"
2018-11-28T15:19:02.195Z,"    0"
2018-11-28T15:23:57.470Z,"    0"
2018-11-28T15:28:53.125Z,"    0"
2018-11-28T15:33:48.930Z,"    0"
2018-11-28T15:38:44.430Z,"    0"
2018-11-28T15:43:39.944Z,"    0"
2018-11-28T15:48:35.529Z,"    0"
2018-11-28T15:53:31.268Z,"    0"
2018-11-28T15:58:26.947Z,"    0"
2018-11-28T16:03:23.564Z,"    0"
2018-11-28T16:08:19.192Z,"    0"
2018-11-28T16:13:15.197Z,"    0"
2018-11-28T16:18:10.925Z,"    0"
2018-11-28T16:23:07.691Z,"    0"
2018-11-28T16:28:03.214Z,"    0"
2018-11-28T16:33:00.192Z,"    0"
2018-11-28T16:37:56.646Z,"    0"
2018-11-28T16:42:51.843Z,"    0"
2018-11-28T16:47:48.040Z,"    0"
2018-11-28T16:52:43.791Z,"    0"
2018-11-28T16:57:39.476Z,"    0"
2018-11-28T17:02:35.451Z,"    0"
2018-11-28T17:07:31.351Z,"    0"
2018-11-28T17:12:27.924Z,"    0"
2018-11-28T17:17:23.268Z,"    0"
2018-11-28T17:22:20.776Z,"    0"
2018-11-28T17:27:16.194Z,"    0"
2018-11-28T17:32:11.812Z,"    0"
2018-11-28T17:37:07.437Z,"    0"
2018-11-28T17:42:02.989Z,"    0"
2018-11-28T17:46:58.590Z,"    0"
2018-11-28T17:51:54.143Z,"    0"
2018-11-28T17:56:49.720Z,"    0"
2018-11-28T18:01:46.295Z,"    0"
2018-11-28T18:06:42.735Z,"    0"
2018-11-28T18:11:38.083Z,"    0"
2018-11-28T18:16:33.560Z,"    0"
2018-11-28T18:21:29.182Z,"    0"
2018-11-28T18:26:25.848Z,"    0"
2018-11-28T18:31:21.967Z,"    0"
2018-11-28T18:36:17.468Z,"    0"
2018-11-28T18:41:14.795Z,"    0"
2018-11-28T18:46:11.419Z,"    0"
2018-11-28T18:51:07.891Z,"    0"
2018-11-28T18:56:03.549Z,"    0"
2018-11-28T19:00:59.130Z,"    0"
2018-11-28T19:05:54.938Z,"    0"
2018-11-28T19:10:51.285Z,"    0"
2018-11-28T19:15:46.788Z,"    0"
2018-11-28T19:20:42.431Z,"    0"
2018-11-28T19:25:37.993Z,"    0"
2018-11-28T19:30:33.540Z,"    0"
2018-11-28T19:35:29.248Z,"    0"
2018-11-28T19:40:25.923Z,"    0"
2018-11-28T19:45:22.660Z,"    0"
2018-11-28T19:50:17.893Z,"    0"
2018-11-28T19:55:13.521Z,"    0"
2018-11-28T20:00:09.562Z,"    0"
2018-11-28T20:05:04.941Z,"    0"
2018-11-28T20:10:00.571Z,"    0"
2018-11-28T20:14:56.358Z,"    0"
2018-11-28T20:19:53.582Z,"    0"
2018-11-28T20:24:49.052Z,"    0"
2018-11-28T20:29:44.270Z,"    0"
2018-11-28T20:34:41.000Z,"    0"
2018-11-28T20:39:36.459Z,"    0"
2018-11-28T20:44:32.108Z,"    0"
2018-11-28T20:49:27.736Z,"    0"
2018-11-28T20:54:23.528Z,"    0"
2018-11-28T20:59:20.380Z,"    0"
2018-11-28T21:04:15.579Z,"    0"
2018-11-28T21:09:12.238Z,"    0"
2018-11-28T21:14:07.583Z,"    0"
2018-11-28T21:19:03.416Z,"    0"
2018-11-28T21:23:58.994Z,"    0"
2018-11-28T21:28:54.913Z,"    0"
2018-11-28T21:33:52.241Z,"    0"
2018-11-28T21:38:48.349Z,"    0"
2018-11-28T21:43:43.793Z,"    0"
2018-11-28T21:48:39.474Z,"    0"
2018-11-28T21:53:35.070Z,"    0"
2018-11-28T21:58:31.822Z,"    0"
2018-11-28T22:03:30.609Z,"    0"
2018-11-28T22:08:27.602Z,"    0"
2018-11-28T22:13:23.783Z,"    0"
2018-11-28T22:18:19.200Z,"    0"
2018-11-28T22:23:16.209Z,"    0"
2018-11-28T22:28:11.528Z,"    0"
2018-11-28T22:33:09.519Z,"    0"
2018-11-28T22:38:04.710Z,"    0"
2018-11-28T22:43:00.509Z,"    0"
2018-11-28T22:47:59.192Z,"    0"
2018-11-28T22:52:58.664Z,"    0"
2018-11-28T22:57:53.044Z,"    0"
2018-11-28T23:02:49.051Z,"    0"
2018-11-28T23:07:45.911Z,"    0"
2018-11-28T23:12:41.289Z,"    0"
2018-11-28T23:17:37.135Z,"    0"
2018-11-28T23:22:32.790Z,"    0"
2018-11-28T23:27:29.449Z,"    0"
2018-11-28T23:32:25.825Z,"    0"
2018-11-28T23:37:22.135Z,"    0"
2018-11-28T23:42:17.730Z,"    0"
2018-11-28T23:47:13.511Z,"    0"
2018-11-28T23:52:09.272Z,"    0"
2018-11-28T23:57:05.349Z,"    0"
